createdAt,value
2019-02-21T00:00:11.183Z,18.23
2019-02-21T00:02:41.501Z,22.50
2019-02-21T00:05:11.975Z,19.00
2019-02-21T00:07:43.407Z,19.10
2019-02-21T00:10:13.816Z,20.43
2019-02-21T00:12:45.674Z,20.03
2019-02-21T00:15:16.152Z,17.07
2019-02-21T00:17:46.577Z,18.87
2019-02-21T00:20:17.065Z,18.33
2019-02-21T00:22:47.531Z,18.47
2019-02-21T00:25:18.038Z,21.87
2019-02-21T00:27:48.428Z,18.03
2019-02-21T00:30:18.813Z,17.47
2019-02-21T00:32:49.253Z,19.87
2019-02-21T00:35:19.680Z,19.60
2019-02-21T00:37:50.129Z,20.13
2019-02-21T00:40:20.635Z,20.93
2019-02-21T00:42:51.031Z,18.30
2019-02-21T00:45:21.342Z,20.87
2019-02-21T00:47:51.780Z,21.87
2019-02-21T00:50:22.255Z,26.17
2019-02-21T00:52:52.669Z,17.83
2019-02-21T00:55:23.122Z,18.87
2019-02-21T00:57:53.498Z,27.07
2019-02-21T01:00:23.968Z,19.87
2019-02-21T01:02:54.431Z,24.53
2019-02-21T01:05:24.945Z,24.73
2019-02-21T01:07:55.316Z,20.77
2019-02-21T01:10:25.751Z,20.07
2019-02-21T01:12:56.342Z,23.70
2019-02-21T01:15:27.062Z,18.80
2019-02-21T01:17:57.640Z,20.63
2019-02-21T01:20:27.936Z,19.73
2019-02-21T01:22:58.306Z,21.23
2019-02-21T01:25:28.796Z,22.40
2019-02-21T01:27:59.147Z,17.27
2019-02-21T01:30:29.687Z,19.23
2019-02-21T01:33:00.114Z,20.20
2019-02-21T01:35:30.420Z,19.00
2019-02-21T01:38:00.913Z,21.67
2019-02-21T01:40:31.286Z,24.23
2019-02-21T01:43:01.698Z,25.10
2019-02-21T01:45:32.148Z,25.97
2019-02-21T01:48:02.632Z,20.27
2019-02-21T01:50:33.146Z,27.50
2019-02-21T01:53:03.365Z,23.00
2019-02-21T01:55:33.796Z,22.53
2019-02-21T01:58:04.228Z,24.10
2019-02-21T02:00:34.653Z,22.40
2019-02-21T02:03:05.329Z,24.43
2019-02-21T02:05:35.819Z,26.10
2019-02-21T02:08:06.171Z,22.97
2019-02-21T02:10:36.526Z,21.73
2019-02-21T02:13:06.834Z,23.33
2019-02-21T02:15:37.265Z,25.83
2019-02-21T02:18:07.652Z,23.20
2019-02-21T02:20:38.090Z,21.13
2019-02-21T02:23:08.455Z,21.50
2019-02-21T02:25:38.974Z,23.43
2019-02-21T02:28:09.430Z,23.83
2019-02-21T02:30:39.860Z,19.83
2019-02-21T02:33:10.271Z,21.70
2019-02-21T02:35:40.709Z,20.63
2019-02-21T02:38:11.217Z,20.67
2019-02-21T02:40:41.552Z,19.37
2019-02-21T02:43:11.818Z,19.43
2019-02-21T02:45:42.580Z,20.30
2019-02-21T02:48:13.083Z,24.77
2019-02-21T02:50:43.538Z,20.77
2019-02-21T02:53:14.933Z,21.83
2019-02-21T02:55:45.393Z,21.10
2019-02-21T02:58:16.009Z,19.57
2019-02-21T03:00:46.501Z,21.83
2019-02-21T03:03:17.025Z,22.13
2019-02-21T03:05:47.489Z,22.77
2019-02-21T03:08:17.902Z,23.47
2019-02-21T03:10:48.360Z,24.53
2019-02-21T03:13:18.810Z,24.03
2019-02-21T03:15:49.225Z,23.77
2019-02-21T03:18:19.661Z,25.77
2019-02-21T03:20:50.019Z,24.67
2019-02-21T03:23:20.339Z,22.20
2019-02-21T03:25:50.738Z,18.70
2019-02-21T03:28:21.199Z,18.83
2019-02-21T03:30:51.924Z,18.50
2019-02-21T03:33:22.350Z,21.90
2019-02-21T03:35:52.872Z,20.67
2019-02-21T03:38:23.357Z,20.83
2019-02-21T03:40:53.740Z,23.20
2019-02-21T03:43:24.124Z,24.63
2019-02-21T03:45:54.571Z,21.47
2019-02-21T03:48:25.113Z,24.30
2019-02-21T03:50:55.629Z,25.57
2019-02-21T03:53:26.062Z,22.37
2019-02-21T03:55:56.515Z,24.47
2019-02-21T03:58:27.455Z,26.33
2019-02-21T04:00:57.858Z,24.90
2019-02-21T04:03:28.543Z,24.17
2019-02-21T04:05:58.820Z,23.33
2019-02-21T04:08:29.387Z,28.77
2019-02-21T04:10:59.827Z,27.43
2019-02-21T04:13:30.222Z,27.70
2019-02-21T04:16:01.082Z,27.17
2019-02-21T04:18:31.454Z,30.00
2019-02-21T04:21:01.773Z,26.73
2019-02-21T04:23:32.316Z,26.73
2019-02-21T04:26:03.875Z,25.07
2019-02-21T04:28:34.188Z,25.50
2019-02-21T04:31:04.696Z,27.03
2019-02-21T04:33:35.000Z,31.73
2019-02-21T04:36:05.418Z,28.53
2019-02-21T04:38:35.834Z,27.93
2019-02-21T04:41:06.236Z,31.33
2019-02-21T04:43:36.646Z,22.23
2019-02-21T04:46:07.079Z,23.70
2019-02-21T04:48:37.575Z,26.03
2019-02-21T04:51:07.900Z,23.80
2019-02-21T04:53:38.409Z,22.23
2019-02-21T04:56:08.856Z,24.57
2019-02-21T04:58:39.215Z,23.00
2019-02-21T05:01:09.728Z,25.47
2019-02-21T05:03:40.167Z,24.17
2019-02-21T05:06:10.762Z,29.47
2019-02-21T05:08:41.246Z,25.53
2019-02-21T05:11:11.707Z,28.27
2019-02-21T05:13:42.081Z,24.00
2019-02-21T05:16:12.518Z,24.30
2019-02-21T05:18:42.957Z,24.13
2019-02-21T05:21:13.402Z,25.63
2019-02-21T05:23:43.828Z,23.07
2019-02-21T05:26:17.887Z,26.43
2019-02-21T05:28:48.310Z,23.50
2019-02-21T05:31:29.099Z,26.60
2019-02-21T05:34:09.876Z,24.43
2019-02-21T05:36:58.043Z,26.47
2019-02-21T05:39:38.055Z,23.17
2019-02-21T05:42:33.395Z,25.40
2019-02-21T05:45:21.651Z,27.43
2019-02-21T05:48:04.697Z,26.43
2019-02-21T05:50:41.202Z,27.17
2019-02-21T05:53:21.204Z,27.50
2019-02-21T05:56:12.420Z,28.10
2019-02-21T05:59:01.768Z,29.37
2019-02-21T06:01:55.739Z,30.83
2019-02-21T06:04:57.396Z,28.40
2019-02-21T06:07:42.155Z,30.40
2019-02-21T06:10:37.558Z,35.13
2019-02-21T06:13:23.963Z,26.43
2019-02-21T06:16:09.831Z,32.37
2019-02-21T06:18:48.650Z,24.27
2019-02-21T06:21:44.066Z,28.13
2019-02-21T06:24:33.316Z,23.50
2019-02-21T06:27:12.654Z,31.87
2019-02-21T06:30:04.780Z,28.40
2019-02-21T06:32:35.213Z,32.33
2019-02-21T06:35:06.542Z,28.63
2019-02-21T06:37:37.910Z,28.87
2019-02-21T06:40:08.479Z,30.03
2019-02-21T06:42:39.313Z,29.57
2019-02-21T06:45:09.856Z,36.47
2019-02-21T06:47:40.191Z,44.83
2019-02-21T06:50:10.639Z,39.37
2019-02-21T06:52:40.941Z,33.70
2019-02-21T06:55:11.301Z,31.70
2019-02-21T06:57:41.632Z,35.07
2019-02-21T07:00:12.026Z,30.57
2019-02-21T07:02:42.393Z,31.00
2019-02-21T07:05:12.870Z,32.43
2019-02-21T07:07:43.327Z,31.83
2019-02-21T07:10:13.642Z,29.87
2019-02-21T07:12:44.122Z,31.33
2019-02-21T07:15:15.219Z,34.33
2019-02-21T07:17:49.450Z,30.90
2019-02-21T07:20:17.904Z,31.57
2019-02-21T07:22:48.333Z,33.80
2019-02-21T07:25:38.542Z,30.50
2019-02-21T07:28:12.489Z,30.13
2019-02-21T07:30:42.939Z,27.77
2019-02-21T07:33:13.360Z,33.57
2019-02-21T07:35:43.688Z,34.17
2019-02-21T07:38:14.051Z,32.50
2019-02-21T07:40:44.457Z,32.13
2019-02-21T07:43:14.932Z,34.77
2019-02-21T07:45:45.225Z,32.10
2019-02-21T07:48:15.671Z,32.00
2019-02-21T07:50:46.044Z,34.43
2019-02-21T07:53:16.427Z,32.83
2019-02-21T07:55:46.948Z,30.43
2019-02-21T07:58:17.315Z,30.77
2019-02-21T08:00:47.768Z,29.27
2019-02-21T08:03:29.501Z,29.27
2019-02-21T08:05:50.295Z,28.50
2019-02-21T08:08:21.065Z,31.30
2019-02-21T08:10:51.578Z,32.83
2019-02-21T08:13:21.930Z,29.87
2019-02-21T08:15:52.375Z,30.43
2019-02-21T08:18:22.713Z,30.73
2019-02-21T08:20:53.036Z,26.63
2019-02-21T08:23:23.480Z,25.63
2019-02-21T08:25:53.886Z,23.13
2019-02-21T08:28:24.328Z,25.30
2019-02-21T08:30:54.820Z,24.83
2019-02-21T08:33:58.433Z,21.40
2019-02-21T08:36:23.480Z,23.43
2019-02-21T08:38:53.898Z,20.77
2019-02-21T08:41:25.745Z,22.03
2019-02-21T08:43:57.400Z,21.27
2019-02-21T08:46:28.038Z,25.63
2019-02-21T08:48:58.544Z,22.47
2019-02-21T08:51:29.015Z,22.83
2019-02-21T08:53:59.459Z,22.33
2019-02-21T08:56:30.098Z,21.50
2019-02-21T08:59:00.624Z,23.17
2019-02-21T09:01:31.083Z,20.57
2019-02-21T09:04:10.101Z,20.43
2019-02-21T09:06:33.760Z,22.40
2019-02-21T09:09:04.835Z,23.50
2019-02-21T09:11:35.300Z,22.70
2019-02-21T09:14:05.693Z,22.20
2019-02-21T09:16:36.054Z,23.10
2019-02-21T09:19:06.446Z,21.23
2019-02-21T09:21:36.867Z,21.20
2019-02-21T09:24:07.632Z,22.47
2019-02-21T09:26:38.144Z,19.27
2019-02-21T09:29:08.556Z,21.30
2019-02-21T09:31:39.032Z,21.37
2019-02-21T09:34:09.379Z,21.17
2019-02-21T09:36:39.844Z,21.97
2019-02-21T09:39:10.159Z,21.60
2019-02-21T09:41:40.675Z,20.00
2019-02-21T09:44:11.021Z,19.73
2019-02-21T09:46:41.406Z,18.63
2019-02-21T09:49:11.872Z,17.77
2019-02-21T09:51:42.165Z,20.97
2019-02-21T09:54:12.657Z,17.93
2019-02-21T09:56:52.397Z,21.47
2019-02-21T09:59:15.308Z,18.67
2019-02-21T10:01:45.706Z,18.03
2019-02-21T10:04:16.160Z,18.60
2019-02-21T10:06:47.113Z,16.37
2019-02-21T10:09:17.599Z,16.83
2019-02-21T10:11:47.914Z,18.90
2019-02-21T10:14:18.369Z,17.47
2019-02-21T10:16:49.654Z,17.53
2019-02-21T10:19:20.132Z,17.43
2019-02-21T10:21:50.567Z,17.93
2019-02-21T10:24:20.905Z,17.93
2019-02-21T10:26:51.365Z,19.57
2019-02-21T10:29:21.737Z,20.33
2019-02-21T10:31:52.040Z,26.63
2019-02-21T10:34:22.469Z,22.40
2019-02-21T10:36:52.851Z,19.07
2019-02-21T10:39:23.372Z,17.77
2019-02-21T10:41:53.786Z,20.03
2019-02-21T10:44:24.296Z,19.43
2019-02-21T10:46:54.663Z,20.77
2019-02-21T10:49:25.162Z,20.83
2019-02-21T10:51:55.599Z,21.57
2019-02-21T10:54:25.912Z,20.23
2019-02-21T10:56:56.359Z,20.73
2019-02-21T10:59:27.544Z,20.27
2019-02-21T11:01:57.863Z,17.43
2019-02-21T11:04:28.248Z,18.23
2019-02-21T11:06:58.683Z,20.07
2019-02-21T11:09:29.133Z,19.17
2019-02-21T11:11:59.557Z,19.43
2019-02-21T11:14:29.898Z,17.63
2019-02-21T11:17:00.804Z,14.80
2019-02-21T11:19:32.044Z,14.23
2019-02-21T11:22:03.169Z,16.43
2019-02-21T11:24:34.797Z,13.60
2019-02-21T11:27:06.375Z,16.83
2019-02-21T11:29:38.409Z,13.67
2019-02-21T11:32:09.752Z,16.73
2019-02-21T11:34:40.439Z,15.60
2019-02-21T11:37:12.298Z,13.60
2019-02-21T11:39:42.820Z,17.40
2019-02-21T11:42:13.541Z,14.20
2019-02-21T11:44:44.643Z,15.07
2019-02-21T11:47:15.654Z,24.00
2019-02-21T11:49:46.967Z,13.73
2019-02-21T11:52:17.440Z,17.13
2019-02-21T11:54:47.766Z,17.57
2019-02-21T11:57:18.749Z,13.83
2019-02-21T11:59:49.644Z,14.23
2019-02-21T12:02:20.056Z,14.67
2019-02-21T12:04:50.493Z,16.03
2019-02-21T12:07:20.854Z,14.30
2019-02-21T12:09:51.274Z,15.27
2019-02-21T12:12:21.667Z,19.07
2019-02-21T12:14:51.970Z,17.57
2019-02-21T12:17:22.406Z,16.87
2019-02-21T12:19:52.868Z,15.73
2019-02-21T12:22:23.307Z,15.93
2019-02-21T12:24:53.782Z,16.90
2019-02-21T12:27:24.212Z,18.80
2019-02-21T12:29:54.687Z,15.13
2019-02-21T12:32:25.114Z,15.37
2019-02-21T12:34:55.667Z,14.23
2019-02-21T12:37:26.114Z,13.43
2019-02-21T12:39:56.796Z,17.03
2019-02-21T12:42:27.286Z,18.37
2019-02-21T12:44:57.762Z,15.23
2019-02-21T12:47:28.120Z,14.93
2019-02-21T12:49:58.577Z,16.50
2019-02-21T12:52:28.993Z,17.80
2019-02-21T12:54:59.405Z,18.47
2019-02-21T12:57:29.894Z,17.90
2019-02-21T13:00:00.231Z,16.17
2019-02-21T13:02:30.691Z,17.63
2019-02-21T13:05:01.111Z,21.03
2019-02-21T13:07:31.509Z,73.93
2019-02-21T13:10:02.057Z,18.17
2019-02-21T13:12:32.470Z,16.00
2019-02-21T13:15:02.802Z,16.13
2019-02-21T13:17:33.136Z,14.77
2019-02-21T13:20:03.555Z,15.90
2019-02-21T13:22:33.925Z,14.13
2019-02-21T13:25:04.381Z,17.50
2019-02-21T13:27:34.771Z,16.57
2019-02-21T13:30:05.950Z,17.70
2019-02-21T13:32:36.380Z,13.47
2019-02-21T13:35:07.540Z,16.47
2019-02-21T13:37:38.070Z,17.83
2019-02-21T13:40:09.876Z,15.70
2019-02-21T13:42:40.287Z,15.23
2019-02-21T13:45:11.818Z,16.00
2019-02-21T13:47:42.257Z,13.93
2019-02-21T13:50:15.430Z,21.30
2019-02-21T13:52:45.902Z,21.20
2019-02-21T13:55:16.468Z,16.47
2019-02-21T13:57:47.034Z,15.70
2019-02-21T14:00:19.045Z,15.13
2019-02-21T14:02:49.969Z,13.60
2019-02-21T14:05:20.436Z,15.53
2019-02-21T14:07:50.920Z,16.87
2019-02-21T14:10:21.344Z,17.33
2019-02-21T14:12:51.646Z,19.80
2019-02-21T14:15:24.248Z,17.93
2019-02-21T14:17:54.654Z,29.47
2019-02-21T14:20:25.109Z,24.57
2019-02-21T14:22:55.555Z,15.27
2019-02-21T14:25:28.204Z,20.90
2019-02-21T14:27:58.192Z,23.23
2019-02-21T14:30:28.494Z,25.83
2019-02-21T14:32:58.903Z,20.00
2019-02-21T14:35:29.381Z,15.93
2019-02-21T14:37:59.783Z,22.27
2019-02-21T14:40:30.142Z,27.50
2019-02-21T14:43:00.506Z,16.47
2019-02-21T14:45:30.982Z,15.77
2019-02-21T14:48:01.428Z,14.10
2019-02-21T14:50:31.760Z,16.17
2019-02-21T14:53:02.148Z,17.37
2019-02-21T14:55:32.528Z,20.57
2019-02-21T14:58:02.915Z,17.80
2019-02-21T15:00:33.247Z,18.97
2019-02-21T15:03:03.653Z,14.90
2019-02-21T15:05:34.199Z,16.73
2019-02-21T15:08:04.621Z,17.67
2019-02-21T15:10:35.078Z,17.60
2019-02-21T15:13:05.563Z,16.73
2019-02-21T15:15:37.773Z,15.63
2019-02-21T15:18:11.096Z,19.10
2019-02-21T15:20:40.359Z,18.67
2019-02-21T15:23:10.826Z,18.23
2019-02-21T15:25:41.279Z,19.13
2019-02-21T15:28:11.975Z,20.53
2019-02-21T15:30:42.354Z,19.33
2019-02-21T15:33:12.917Z,18.30
2019-02-21T15:35:43.236Z,20.27
2019-02-21T15:38:19.843Z,18.93
2019-02-21T15:40:45.848Z,24.83
2019-02-21T15:43:16.190Z,21.70
2019-02-21T15:45:46.551Z,21.33
2019-02-21T15:48:16.911Z,18.33
2019-02-21T15:50:47.314Z,15.77
2019-02-21T15:53:17.818Z,17.70
2019-02-21T15:55:48.402Z,16.40
2019-02-21T15:58:18.837Z,16.00
2019-02-21T16:00:49.242Z,17.83
2019-02-21T16:03:19.664Z,17.90
2019-02-21T16:05:50.047Z,18.30
2019-02-21T16:08:20.575Z,15.63
2019-02-21T16:10:51.021Z,16.73
2019-02-21T16:13:22.215Z,15.93
2019-02-21T16:15:52.875Z,16.37
2019-02-21T16:18:23.289Z,18.83
2019-02-21T16:20:53.850Z,18.23
2019-02-21T16:23:25.771Z,20.50
2019-02-21T16:25:56.173Z,17.90
2019-02-21T16:28:26.661Z,18.80
2019-02-21T16:30:57.101Z,22.60
2019-02-21T16:33:27.566Z,20.00
2019-02-21T16:35:57.968Z,33.30
2019-02-21T16:38:28.424Z,30.17
2019-02-21T16:40:59.056Z,68.23
2019-02-21T16:43:29.488Z,28.27
2019-02-21T16:46:07.401Z,19.27
2019-02-21T16:48:31.907Z,19.33
2019-02-21T16:51:02.393Z,20.77
2019-02-21T16:53:32.805Z,18.77
2019-02-21T16:56:03.141Z,18.13
2019-02-21T16:58:34.450Z,18.17
2019-02-21T17:01:04.849Z,19.80
2019-02-21T17:03:35.260Z,19.63
2019-02-21T17:06:05.983Z,21.40
2019-02-21T17:08:36.329Z,20.97
2019-02-21T17:11:06.809Z,26.93
2019-02-21T17:13:37.206Z,22.10
2019-02-21T17:16:08.179Z,32.97
2019-02-21T17:18:38.867Z,33.27
2019-02-21T17:21:09.422Z,44.53
2019-02-21T17:23:40.684Z,46.77
2019-02-21T17:26:11.471Z,34.40
2019-02-21T17:28:42.201Z,37.70
2019-02-21T17:31:13.118Z,28.87
2019-02-21T17:33:43.509Z,25.50
2019-02-21T17:36:14.227Z,24.63
2019-02-21T17:38:45.427Z,23.60
2019-02-21T17:41:16.482Z,21.73
2019-02-21T17:43:48.016Z,20.20
2019-02-21T17:46:18.809Z,26.47
2019-02-21T17:48:49.721Z,25.27
2019-02-21T17:51:20.279Z,23.10
2019-02-21T17:53:52.660Z,23.90
2019-02-21T17:56:23.647Z,24.60
2019-02-21T17:58:54.547Z,24.63
2019-02-21T18:01:25.382Z,24.97
2019-02-21T18:03:56.231Z,26.03
2019-02-21T18:06:30.016Z,26.03
2019-02-21T18:09:02.202Z,30.80
2019-02-21T18:11:32.789Z,23.80
2019-02-21T18:14:04.178Z,24.70
2019-02-21T18:16:34.809Z,28.37
2019-02-21T18:19:05.447Z,23.57
2019-02-21T18:21:35.972Z,25.00
2019-02-21T18:24:06.799Z,26.97
2019-02-21T18:26:37.365Z,24.67
2019-02-21T18:29:07.733Z,23.23
2019-02-21T18:31:38.168Z,28.30
2019-02-21T18:34:08.619Z,26.43
2019-02-21T18:36:39.055Z,24.47
2019-02-21T18:39:09.838Z,27.43
2019-02-21T18:41:40.288Z,25.53
2019-02-21T18:44:10.934Z,21.87
2019-02-21T18:46:41.379Z,24.70
2019-02-21T18:49:11.851Z,23.70
2019-02-21T18:51:42.330Z,26.60
2019-02-21T18:54:12.626Z,27.87
2019-02-21T18:56:43.032Z,24.20
2019-02-21T18:59:13.464Z,25.00
2019-02-21T19:01:43.937Z,24.80
2019-02-21T19:04:14.392Z,25.93
2019-02-21T19:06:44.881Z,25.77
2019-02-21T19:09:15.354Z,25.37
2019-02-21T19:11:45.922Z,26.13
2019-02-21T19:14:16.292Z,23.27
2019-02-21T19:16:46.731Z,28.60
2019-02-21T19:19:17.203Z,30.57
2019-02-21T19:21:47.662Z,30.13
2019-02-21T19:24:18.055Z,31.13
2019-02-21T19:26:48.617Z,27.93
2019-02-21T19:29:19.020Z,29.83
2019-02-21T19:31:49.671Z,41.43
2019-02-21T19:34:20.138Z,29.23
2019-02-21T19:36:50.943Z,30.30
2019-02-21T19:39:21.301Z,28.00
2019-02-21T19:41:51.767Z,25.43
2019-02-21T19:44:22.098Z,30.00
2019-02-21T19:46:52.564Z,29.63
2019-02-21T19:49:23.005Z,35.43
2019-02-21T19:51:53.461Z,33.37
2019-02-21T19:54:24.110Z,32.97
2019-02-21T19:56:54.739Z,34.07
2019-02-21T19:59:25.443Z,26.80
2019-02-21T20:01:56.075Z,26.23
2019-02-21T20:04:26.880Z,28.47
2019-02-21T20:06:59.425Z,26.90
2019-02-21T20:09:30.302Z,29.93
2019-02-21T20:12:02.077Z,26.83
2019-02-21T20:14:32.532Z,32.70
2019-02-21T20:17:02.868Z,26.93
2019-02-21T20:19:33.334Z,27.50
2019-02-21T20:22:03.838Z,28.90
2019-02-21T20:24:34.187Z,24.70
2019-02-21T20:27:04.651Z,27.03
2019-02-21T20:29:35.030Z,26.90
2019-02-21T20:32:05.365Z,28.40
2019-02-21T20:34:35.763Z,26.20
2019-02-21T20:37:06.054Z,25.80
2019-02-21T20:39:36.746Z,22.13
2019-02-21T20:42:07.195Z,26.97
2019-02-21T20:44:37.815Z,24.07
2019-02-21T20:47:08.344Z,28.60
2019-02-21T20:49:38.746Z,29.20
2019-02-21T20:52:09.233Z,25.23
2019-02-21T20:54:39.569Z,25.27
2019-02-21T20:57:09.890Z,28.27
2019-02-21T20:59:40.497Z,27.97
2019-02-21T21:02:11.185Z,28.57
2019-02-21T21:04:41.635Z,23.57
2019-02-21T21:07:11.969Z,24.57
2019-02-21T21:09:42.406Z,23.87
2019-02-21T21:12:12.882Z,22.70
2019-02-21T21:14:43.337Z,24.50
2019-02-21T21:17:13.922Z,27.50
2019-02-21T21:19:45.442Z,26.67
2019-02-21T21:22:16.022Z,25.80
2019-02-21T21:24:46.508Z,25.50
2019-02-21T21:27:17.185Z,26.80
2019-02-21T21:29:47.681Z,33.47
2019-02-21T21:32:18.473Z,31.97
2019-02-21T21:34:49.015Z,30.50
2019-02-21T21:37:19.731Z,29.23
2019-02-21T21:39:50.426Z,28.03
2019-02-21T21:42:21.138Z,28.17
2019-02-21T21:44:51.776Z,30.37
2019-02-21T21:47:23.852Z,30.47
2019-02-21T21:49:55.351Z,28.60
2019-02-21T21:52:26.217Z,32.77
2019-02-21T21:54:56.822Z,31.33
2019-02-21T21:57:27.552Z,40.43
2019-02-21T21:59:57.978Z,30.00
2019-02-21T22:02:28.567Z,26.53
2019-02-21T22:04:59.228Z,32.83
2019-02-21T22:07:29.685Z,26.67
2019-02-21T22:10:00.598Z,29.10
2019-02-21T22:12:31.257Z,31.00
2019-02-21T22:15:01.814Z,27.20
2019-02-21T22:17:33.458Z,27.50
2019-02-21T22:20:04.160Z,25.33
2019-02-21T22:22:34.751Z,27.83
2019-02-21T22:25:05.993Z,23.43
2019-02-21T22:27:36.453Z,28.07
2019-02-21T22:30:08.075Z,26.87
2019-02-21T22:32:38.853Z,25.57
2019-02-21T22:35:09.599Z,25.20
2019-02-21T22:37:43.683Z,27.63
2019-02-21T22:40:15.143Z,30.30
2019-02-21T22:42:45.793Z,34.33
2019-02-21T22:45:16.386Z,26.67
2019-02-21T22:47:46.770Z,27.60
2019-02-21T22:50:17.658Z,47.03
2019-02-21T22:52:48.164Z,39.87
2019-02-21T22:55:19.332Z,25.83
2019-02-21T22:57:50.853Z,28.27
2019-02-21T23:01:10.313Z,28.43
2019-02-21T23:04:28.242Z,29.13
2019-02-21T23:08:22.655Z,28.53
2019-02-21T23:10:53.378Z,31.60
2019-02-21T23:13:24.003Z,29.77
2019-02-21T23:15:54.561Z,29.63
2019-02-21T23:18:25.037Z,27.23
2019-02-21T23:20:56.595Z,30.97
2019-02-21T23:23:27.061Z,29.77
2019-02-21T23:25:57.545Z,28.30
2019-02-21T23:28:27.915Z,29.87
2019-02-21T23:30:58.405Z,31.23
2019-02-21T23:33:29.848Z,26.90
2019-02-21T23:36:00.355Z,33.87
2019-02-21T23:38:30.818Z,37.07
2019-02-21T23:41:01.272Z,33.83
2019-02-21T23:43:31.713Z,37.00
2019-02-21T23:46:02.110Z,30.37
2019-02-21T23:48:32.466Z,30.67
2019-02-21T23:51:02.949Z,26.67
2019-02-21T23:53:33.402Z,32.90
2019-02-21T23:56:03.834Z,32.13
2019-02-21T23:58:34.282Z,44.13
